sensor_id;sensor_type;location;lat;lon;timestamp;temperature;humidity
46488;DHT22;32202;48.780;9.204;2023-03-19T00:01:07;13.00;66.10
46488;DHT22;32202;48.780;9.204;2023-03-19T00:03:33;13.00;66.10
46488;DHT22;32202;48.780;9.204;2023-03-19T00:06:00;13.10;66.10
46488;DHT22;32202;48.780;9.204;2023-03-19T00:08:25;13.10;66.10
46488;DHT22;32202;48.780;9.204;2023-03-19T00:10:51;13.10;65.80
46488;DHT22;32202;48.780;9.204;2023-03-19T00:13:17;13.00;66.00
46488;DHT22;32202;48.780;9.204;2023-03-19T00:15:42;13.10;66.30
46488;DHT22;32202;48.780;9.204;2023-03-19T00:18:08;13.10;66.60
46488;DHT22;32202;48.780;9.204;2023-03-19T00:20:34;13.00;67.10
46488;DHT22;32202;48.780;9.204;2023-03-19T00:23:00;13.00;67.50
46488;DHT22;32202;48.780;9.204;2023-03-19T00:25:25;12.90;67.60
46488;DHT22;32202;48.780;9.204;2023-03-19T00:27:51;12.90;67.60
46488;DHT22;32202;48.780;9.204;2023-03-19T00:30:25;12.80;68.10
46488;DHT22;32202;48.780;9.204;2023-03-19T00:32:51;12.80;68.00
46488;DHT22;32202;48.780;9.204;2023-03-19T00:35:17;12.80;68.10
46488;DHT22;32202;48.780;9.204;2023-03-19T00:37:42;12.80;68.40
46488;DHT22;32202;48.780;9.204;2023-03-19T00:40:08;12.80;68.70
46488;DHT22;32202;48.780;9.204;2023-03-19T00:42:34;12.70;69.00
46488;DHT22;32202;48.780;9.204;2023-03-19T00:45:00;12.80;68.90
46488;DHT22;32202;48.780;9.204;2023-03-19T00:47:26;12.70;69.30
46488;DHT22;32202;48.780;9.204;2023-03-19T00:49:51;12.80;69.40
46488;DHT22;32202;48.780;9.204;2023-03-19T00:52:17;12.70;69.40
46488;DHT22;32202;48.780;9.204;2023-03-19T00:54:42;12.70;69.80
46488;DHT22;32202;48.780;9.204;2023-03-19T00:57:08;12.70;70.00
46488;DHT22;32202;48.780;9.204;2023-03-19T00:59:34;12.60;70.30
46488;DHT22;32202;48.780;9.204;2023-03-19T01:01:59;12.60;70.60
46488;DHT22;32202;48.780;9.204;2023-03-19T01:04:25;12.60;70.80
46488;DHT22;32202;48.780;9.204;2023-03-19T01:06:50;12.60;70.90
46488;DHT22;32202;48.780;9.204;2023-03-19T01:09:16;12.60;71.00
46488;DHT22;32202;48.780;9.204;2023-03-19T01:11:42;12.60;71.30
46488;DHT22;32202;48.780;9.204;2023-03-19T01:14:07;12.60;71.10
46488;DHT22;32202;48.780;9.204;2023-03-19T01:16:33;12.60;71.10
46488;DHT22;32202;48.780;9.204;2023-03-19T01:18:59;12.60;71.10
46488;DHT22;32202;48.780;9.204;2023-03-19T01:21:25;12.70;70.80
46488;DHT22;32202;48.780;9.204;2023-03-19T01:23:51;12.70;70.80
46488;DHT22;32202;48.780;9.204;2023-03-19T01:26:17;12.70;70.80
46488;DHT22;32202;48.780;9.204;2023-03-19T01:28:42;12.70;71.00
46488;DHT22;32202;48.780;9.204;2023-03-19T01:31:08;12.70;70.90
46488;DHT22;32202;48.780;9.204;2023-03-19T01:33:34;12.80;70.40
46488;DHT22;32202;48.780;9.204;2023-03-19T01:36:00;12.80;69.50
46488;DHT22;32202;48.780;9.204;2023-03-19T01:38:28;12.90;69.20
46488;DHT22;32202;48.780;9.204;2023-03-19T01:40:53;12.90;69.10
46488;DHT22;32202;48.780;9.204;2023-03-19T01:43:26;13.00;69.30
46488;DHT22;32202;48.780;9.204;2023-03-19T01:45:53;12.80;69.70
46488;DHT22;32202;48.780;9.204;2023-03-19T01:48:36;12.80;70.40
46488;DHT22;32202;48.780;9.204;2023-03-19T01:51:02;12.80;68.20
46488;DHT22;32202;48.780;9.204;2023-03-19T01:53:30;12.80;66.50
46488;DHT22;32202;48.780;9.204;2023-03-19T01:55:58;12.90;65.60
46488;DHT22;32202;48.780;9.204;2023-03-19T01:58:27;13.00;65.20
46488;DHT22;32202;48.780;9.204;2023-03-19T02:00:53;13.00;64.50
46488;DHT22;32202;48.780;9.204;2023-03-19T02:03:19;13.00;64.20
46488;DHT22;32202;48.780;9.204;2023-03-19T02:05:44;13.00;63.90
46488;DHT22;32202;48.780;9.204;2023-03-19T02:08:13;13.00;63.20
46488;DHT22;32202;48.780;9.204;2023-03-19T02:10:39;13.00;63.50
46488;DHT22;32202;48.780;9.204;2023-03-19T02:13:05;13.00;64.20
46488;DHT22;32202;48.780;9.204;2023-03-19T02:15:31;13.00;64.60
46488;DHT22;32202;48.780;9.204;2023-03-19T02:17:56;13.00;65.50
46488;DHT22;32202;48.780;9.204;2023-03-19T02:23:19;13.00;67.50
46488;DHT22;32202;48.780;9.204;2023-03-19T02:28:15;12.90;70.10
46488;DHT22;32202;48.780;9.204;2023-03-19T02:30:42;13.00;73.00
46488;DHT22;32202;48.780;9.204;2023-03-19T02:33:12;12.80;77.30
46488;DHT22;32202;48.780;9.204;2023-03-19T02:35:37;12.60;80.80
46488;DHT22;32202;48.780;9.204;2023-03-19T02:38:03;12.50;83.40
46488;DHT22;32202;48.780;9.204;2023-03-19T02:40:29;12.40;85.60
46488;DHT22;32202;48.780;9.204;2023-03-19T02:42:55;12.40;87.80
46488;DHT22;32202;48.780;9.204;2023-03-19T02:45:21;12.40;90.20
46488;DHT22;32202;48.780;9.204;2023-03-19T02:47:47;12.30;91.10
46488;DHT22;32202;48.780;9.204;2023-03-19T02:50:12;12.40;92.50
46488;DHT22;32202;48.780;9.204;2023-03-19T02:52:38;12.40;93.80
46488;DHT22;32202;48.780;9.204;2023-03-19T02:55:03;12.40;94.20
46488;DHT22;32202;48.780;9.204;2023-03-19T02:57:29;12.40;94.80
46488;DHT22;32202;48.780;9.204;2023-03-19T02:59:55;12.40;94.60
46488;DHT22;32202;48.780;9.204;2023-03-19T03:02:20;12.40;95.20
46488;DHT22;32202;48.780;9.204;2023-03-19T03:04:46;12.40;96.00
46488;DHT22;32202;48.780;9.204;2023-03-19T03:07:12;12.40;96.50
46488;DHT22;32202;48.780;9.204;2023-03-19T03:09:37;12.30;96.20
46488;DHT22;32202;48.780;9.204;2023-03-19T03:12:02;12.30;96.10
46488;DHT22;32202;48.780;9.204;2023-03-19T03:14:28;12.30;96.80
46488;DHT22;32202;48.780;9.204;2023-03-19T03:16:54;12.20;98.00
46488;DHT22;32202;48.780;9.204;2023-03-19T03:19:19;12.30;98.50
46488;DHT22;32202;48.780;9.204;2023-03-19T03:21:45;12.30;99.10
46488;DHT22;32202;48.780;9.204;2023-03-19T03:24:11;12.30;99.90
46488;DHT22;32202;48.780;9.204;2023-03-19T03:26:36;12.30;99.90
46488;DHT22;32202;48.780;9.204;2023-03-19T03:29:05;12.40;99.90
46488;DHT22;32202;48.780;9.204;2023-03-19T03:31:31;12.40;99.90
46488;DHT22;32202;48.780;9.204;2023-03-19T03:34:00;12.40;99.90
46488;DHT22;32202;48.780;9.204;2023-03-19T03:36:26;12.40;99.90
46488;DHT22;32202;48.780;9.204;2023-03-19T03:38:51;12.30;99.90
46488;DHT22;32202;48.780;9.204;2023-03-19T03:41:17;12.20;99.90
46488;DHT22;32202;48.780;9.204;2023-03-19T03:43:43;12.20;99.90
46488;DHT22;32202;48.780;9.204;2023-03-19T03:46:08;12.20;99.90
46488;DHT22;32202;48.780;9.204;2023-03-19T03:48:34;12.20;99.90
46488;DHT22;32202;48.780;9.204;2023-03-19T03:51:00;12.20;99.90
46488;DHT22;32202;48.780;9.204;2023-03-19T03:53:25;12.20;99.90
46488;DHT22;32202;48.780;9.204;2023-03-19T03:55:51;12.10;99.90
46488;DHT22;32202;48.780;9.204;2023-03-19T03:58:16;12.10;99.90
46488;DHT22;32202;48.780;9.204;2023-03-19T04:00:42;12.10;99.90
46488;DHT22;32202;48.780;9.204;2023-03-19T04:03:07;12.10;99.90
46488;DHT22;32202;48.780;9.204;2023-03-19T04:05:33;12.10;99.90
46488;DHT22;32202;48.780;9.204;2023-03-19T04:07:58;12.10;99.90
46488;DHT22;32202;48.780;9.204;2023-03-19T04:10:24;12.10;99.90
46488;DHT22;32202;48.780;9.204;2023-03-19T04:12:50;12.00;99.90
46488;DHT22;32202;48.780;9.204;2023-03-19T04:15:15;12.00;99.90
46488;DHT22;32202;48.780;9.204;2023-03-19T04:17:41;12.00;99.90
46488;DHT22;32202;48.780;9.204;2023-03-19T04:20:07;12.00;99.90
46488;DHT22;32202;48.780;9.204;2023-03-19T04:22:32;12.00;99.90
46488;DHT22;32202;48.780;9.204;2023-03-19T04:24:58;12.00;99.90
46488;DHT22;32202;48.780;9.204;2023-03-19T04:27:24;12.10;99.90
46488;DHT22;32202;48.780;9.204;2023-03-19T04:29:49;12.10;99.90
46488;DHT22;32202;48.780;9.204;2023-03-19T04:32:15;12.10;99.90
46488;DHT22;32202;48.780;9.204;2023-03-19T04:34:40;12.00;99.90
46488;DHT22;32202;48.780;9.204;2023-03-19T04:37:07;12.00;99.90
46488;DHT22;32202;48.780;9.204;2023-03-19T04:39:34;11.90;99.90
46488;DHT22;32202;48.780;9.204;2023-03-19T04:42:00;12.00;99.90
46488;DHT22;32202;48.780;9.204;2023-03-19T04:44:26;12.00;99.90
46488;DHT22;32202;48.780;9.204;2023-03-19T04:46:51;12.00;99.90
46488;DHT22;32202;48.780;9.204;2023-03-19T04:49:16;12.00;99.90
46488;DHT22;32202;48.780;9.204;2023-03-19T04:51:42;12.00;99.90
46488;DHT22;32202;48.780;9.204;2023-03-19T04:54:08;12.00;99.90
46488;DHT22;32202;48.780;9.204;2023-03-19T04:56:34;12.00;99.90
46488;DHT22;32202;48.780;9.204;2023-03-19T04:58:59;12.00;99.90
46488;DHT22;32202;48.780;9.204;2023-03-19T05:01:25;12.10;99.90
46488;DHT22;32202;48.780;9.204;2023-03-19T05:03:51;12.10;99.90
46488;DHT22;32202;48.780;9.204;2023-03-19T05:06:16;12.00;99.90
46488;DHT22;32202;48.780;9.204;2023-03-19T05:08:44;12.10;99.90
46488;DHT22;32202;48.780;9.204;2023-03-19T05:11:10;12.00;99.90
46488;DHT22;32202;48.780;9.204;2023-03-19T05:13:35;12.00;99.90
46488;DHT22;32202;48.780;9.204;2023-03-19T05:16:01;12.00;99.90
46488;DHT22;32202;48.780;9.204;2023-03-19T05:18:26;12.00;99.90
46488;DHT22;32202;48.780;9.204;2023-03-19T05:20:53;12.00;99.90
46488;DHT22;32202;48.780;9.204;2023-03-19T05:23:19;12.00;99.90
46488;DHT22;32202;48.780;9.204;2023-03-19T05:25:45;12.00;99.90
46488;DHT22;32202;48.780;9.204;2023-03-19T05:28:10;12.00;99.90
46488;DHT22;32202;48.780;9.204;2023-03-19T05:30:36;12.00;99.90
46488;DHT22;32202;48.780;9.204;2023-03-19T05:33:02;12.00;99.90
46488;DHT22;32202;48.780;9.204;2023-03-19T05:35:28;12.00;99.90
46488;DHT22;32202;48.780;9.204;2023-03-19T05:37:54;12.00;99.90
46488;DHT22;32202;48.780;9.204;2023-03-19T05:40:20;11.90;99.90
46488;DHT22;32202;48.780;9.204;2023-03-19T05:42:46;11.80;99.90
46488;DHT22;32202;48.780;9.204;2023-03-19T05:45:12;11.80;99.90
46488;DHT22;32202;48.780;9.204;2023-03-19T05:47:37;11.80;99.90
46488;DHT22;32202;48.780;9.204;2023-03-19T05:50:04;11.80;99.90
46488;DHT22;32202;48.780;9.204;2023-03-19T05:52:29;11.80;99.90
46488;DHT22;32202;48.780;9.204;2023-03-19T05:54:55;11.80;99.90
46488;DHT22;32202;48.780;9.204;2023-03-19T05:57:20;11.80;99.90
46488;DHT22;32202;48.780;9.204;2023-03-19T05:59:46;11.80;99.90
46488;DHT22;32202;48.780;9.204;2023-03-19T06:02:11;11.80;99.90
46488;DHT22;32202;48.780;9.204;2023-03-19T06:04:37;11.90;99.90
46488;DHT22;32202;48.780;9.204;2023-03-19T06:07:02;11.90;99.90
46488;DHT22;32202;48.780;9.204;2023-03-19T06:09:28;11.90;99.90
46488;DHT22;32202;48.780;9.204;2023-03-19T06:11:54;11.90;99.90
46488;DHT22;32202;48.780;9.204;2023-03-19T06:14:19;11.90;99.90
46488;DHT22;32202;48.780;9.204;2023-03-19T06:16:45;11.90;99.90
46488;DHT22;32202;48.780;9.204;2023-03-19T06:19:10;12.00;99.90
46488;DHT22;32202;48.780;9.204;2023-03-19T06:21:36;12.00;99.90
46488;DHT22;32202;48.780;9.204;2023-03-19T06:24:01;12.00;99.90
46488;DHT22;32202;48.780;9.204;2023-03-19T06:26:27;12.00;99.90
46488;DHT22;32202;48.780;9.204;2023-03-19T06:28:53;12.00;99.90
46488;DHT22;32202;48.780;9.204;2023-03-19T06:31:18;12.00;99.90
46488;DHT22;32202;48.780;9.204;2023-03-19T06:33:44;12.00;99.90
46488;DHT22;32202;48.780;9.204;2023-03-19T06:36:10;12.00;99.90
46488;DHT22;32202;48.780;9.204;2023-03-19T06:38:35;12.10;99.90
46488;DHT22;32202;48.780;9.204;2023-03-19T06:41:01;12.10;99.90
46488;DHT22;32202;48.780;9.204;2023-03-19T06:43:26;12.20;99.90
46488;DHT22;32202;48.780;9.204;2023-03-19T06:45:52;12.20;99.90
46488;DHT22;32202;48.780;9.204;2023-03-19T06:48:17;12.10;99.90
46488;DHT22;32202;48.780;9.204;2023-03-19T06:50:46;12.10;99.90
46488;DHT22;32202;48.780;9.204;2023-03-19T06:53:12;12.20;99.90
46488;DHT22;32202;48.780;9.204;2023-03-19T06:55:38;12.20;99.90
46488;DHT22;32202;48.780;9.204;2023-03-19T06:58:04;12.20;99.90
46488;DHT22;32202;48.780;9.204;2023-03-19T07:00:29;12.30;99.90
46488;DHT22;32202;48.780;9.204;2023-03-19T07:02:55;12.40;99.90
46488;DHT22;32202;48.780;9.204;2023-03-19T07:05:20;12.50;99.90
46488;DHT22;32202;48.780;9.204;2023-03-19T07:07:46;12.70;99.90
46488;DHT22;32202;48.780;9.204;2023-03-19T07:10:11;12.80;99.90
46488;DHT22;32202;48.780;9.204;2023-03-19T07:12:37;13.00;99.00
46488;DHT22;32202;48.780;9.204;2023-03-19T07:15:03;13.10;98.50
46488;DHT22;32202;48.780;9.204;2023-03-19T07:17:29;13.20;97.50
46488;DHT22;32202;48.780;9.204;2023-03-19T07:19:54;13.20;97.30
46488;DHT22;32202;48.780;9.204;2023-03-19T07:22:20;13.20;96.80
46488;DHT22;32202;48.780;9.204;2023-03-19T07:24:46;13.20;96.10
46488;DHT22;32202;48.780;9.204;2023-03-19T07:27:11;13.20;96.30
46488;DHT22;32202;48.780;9.204;2023-03-19T07:29:37;13.20;95.80
46488;DHT22;32202;48.780;9.204;2023-03-19T07:32:02;13.30;95.50
46488;DHT22;32202;48.780;9.204;2023-03-19T07:34:28;13.30;95.20
46488;DHT22;32202;48.780;9.204;2023-03-19T07:36:53;13.30;95.30
46488;DHT22;32202;48.780;9.204;2023-03-19T07:39:19;13.40;95.10
46488;DHT22;32202;48.780;9.204;2023-03-19T07:41:44;13.40;94.90
46488;DHT22;32202;48.780;9.204;2023-03-19T07:44:13;13.40;95.00
46488;DHT22;32202;48.780;9.204;2023-03-19T07:46:38;13.40;94.50
46488;DHT22;32202;48.780;9.204;2023-03-19T07:49:04;13.50;94.20
46488;DHT22;32202;48.780;9.204;2023-03-19T07:51:30;13.50;93.30
46488;DHT22;32202;48.780;9.204;2023-03-19T07:53:55;13.60;93.60
46488;DHT22;32202;48.780;9.204;2023-03-19T07:56:21;13.60;93.40
46488;DHT22;32202;48.780;9.204;2023-03-19T07:58:46;13.60;92.50
46488;DHT22;32202;48.780;9.204;2023-03-19T08:01:12;13.70;92.80
46488;DHT22;32202;48.780;9.204;2023-03-19T08:03:37;13.70;92.00
46488;DHT22;32202;48.780;9.204;2023-03-19T08:06:03;13.80;92.10
46488;DHT22;32202;48.780;9.204;2023-03-19T08:08:29;13.80;92.30
46488;DHT22;32202;48.780;9.204;2023-03-19T08:10:55;13.80;91.50
46488;DHT22;32202;48.780;9.204;2023-03-19T08:13:21;13.90;91.60
46488;DHT22;32202;48.780;9.204;2023-03-19T08:15:50;13.90;91.70
46488;DHT22;32202;48.780;9.204;2023-03-19T08:18:17;14.00;91.20
46488;DHT22;32202;48.780;9.204;2023-03-19T08:20:44;14.20;90.40
46488;DHT22;32202;48.780;9.204;2023-03-19T08:23:09;14.20;90.00
46488;DHT22;32202;48.780;9.204;2023-03-19T08:25:36;14.40;89.00
46488;DHT22;32202;48.780;9.204;2023-03-19T08:28:02;14.50;87.60
46488;DHT22;32202;48.780;9.204;2023-03-19T08:30:27;14.60;87.50
46488;DHT22;32202;48.780;9.204;2023-03-19T08:32:53;14.80;86.40
46488;DHT22;32202;48.780;9.204;2023-03-19T08:35:19;14.90;85.50
46488;DHT22;32202;48.780;9.204;2023-03-19T08:37:45;15.00;84.90
46488;DHT22;32202;48.780;9.204;2023-03-19T08:40:10;15.00;82.30
46488;DHT22;32202;48.780;9.204;2023-03-19T08:42:36;14.60;80.50
46488;DHT22;32202;48.780;9.204;2023-03-19T08:45:10;14.50;82.00
46488;DHT22;32202;48.780;9.204;2023-03-19T08:47:36;14.70;81.20
46488;DHT22;32202;48.780;9.204;2023-03-19T08:50:02;14.90;78.20
46488;DHT22;32202;48.780;9.204;2023-03-19T08:52:27;15.10;78.70
46488;DHT22;32202;48.780;9.204;2023-03-19T08:54:53;15.30;78.10
46488;DHT22;32202;48.780;9.204;2023-03-19T08:57:19;15.40;77.90
46488;DHT22;32202;48.780;9.204;2023-03-19T08:59:44;15.70;77.10
46488;DHT22;32202;48.780;9.204;2023-03-19T09:02:10;15.90;72.50
46488;DHT22;32202;48.780;9.204;2023-03-19T09:04:39;16.00;70.20
46488;DHT22;32202;48.780;9.204;2023-03-19T09:07:04;15.90;70.30
46488;DHT22;32202;48.780;9.204;2023-03-19T09:09:30;15.80;70.80
46488;DHT22;32202;48.780;9.204;2023-03-19T09:11:55;15.90;70.20
46488;DHT22;32202;48.780;9.204;2023-03-19T09:14:21;16.10;70.70
46488;DHT22;32202;48.780;9.204;2023-03-19T09:16:47;16.60;69.30
46488;DHT22;32202;48.780;9.204;2023-03-19T09:19:13;17.40;66.70
46488;DHT22;32202;48.780;9.204;2023-03-19T09:21:38;18.40;64.50
46488;DHT22;32202;48.780;9.204;2023-03-19T09:24:04;19.50;60.40
46488;DHT22;32202;48.780;9.204;2023-03-19T09:26:30;20.20;56.40
46488;DHT22;32202;48.780;9.204;2023-03-19T09:28:55;20.00;56.30
46488;DHT22;32202;48.780;9.204;2023-03-19T09:31:21;20.80;55.70
46488;DHT22;32202;48.780;9.204;2023-03-19T09:33:48;22.40;52.20
46488;DHT22;32202;48.780;9.204;2023-03-19T09:36:13;23.00;50.70
46488;DHT22;32202;48.780;9.204;2023-03-19T09:38:39;23.40;49.20
46488;DHT22;32202;48.780;9.204;2023-03-19T09:46:15;25.10;46.10
46488;DHT22;32202;48.780;9.204;2023-03-19T09:48:45;25.50;44.90
46488;DHT22;32202;48.780;9.204;2023-03-19T09:51:25;24.90;43.80
46488;DHT22;32202;48.780;9.204;2023-03-19T09:53:59;23.50;45.70
46488;DHT22;32202;48.780;9.204;2023-03-19T09:56:26;23.00;46.10
46488;DHT22;32202;48.780;9.204;2023-03-19T09:58:52;24.20;44.70
46488;DHT22;32202;48.780;9.204;2023-03-19T10:01:25;26.50;41.70
46488;DHT22;32202;48.780;9.204;2023-03-19T10:04:15;28.50;39.40
46488;DHT22;32202;48.780;9.204;2023-03-19T10:06:43;29.50;37.70
46488;DHT22;32202;48.780;9.204;2023-03-19T10:16:53;30.90;37.20
46488;DHT22;32202;48.780;9.204;2023-03-19T10:19:21;33.10;35.50
46488;DHT22;32202;48.780;9.204;2023-03-19T10:21:49;33.70;34.80
46488;DHT22;32202;48.780;9.204;2023-03-19T10:24:27;34.30;34.20
46488;DHT22;32202;48.780;9.204;2023-03-19T10:26:57;34.50;33.10
46488;DHT22;32202;48.780;9.204;2023-03-19T10:29:23;33.50;33.40
46488;DHT22;32202;48.780;9.204;2023-03-19T10:31:55;34.90;32.40
46488;DHT22;32202;48.780;9.204;2023-03-19T10:34:34;35.40;31.60
46488;DHT22;32202;48.780;9.204;2023-03-19T10:37:02;34.10;32.00
46488;DHT22;32202;48.780;9.204;2023-03-19T10:39:32;33.10;32.80
46488;DHT22;32202;48.780;9.204;2023-03-19T10:44:44;33.50;31.80
46488;DHT22;32202;48.780;9.204;2023-03-19T10:47:12;34.50;31.70
46488;DHT22;32202;48.780;9.204;2023-03-19T10:49:38;34.70;31.30
46488;DHT22;32202;48.780;9.204;2023-03-19T10:52:04;32.90;32.60
46488;DHT22;32202;48.780;9.204;2023-03-19T10:54:30;33.00;32.60
46488;DHT22;32202;48.780;9.204;2023-03-19T10:56:56;34.10;31.90
46488;DHT22;32202;48.780;9.204;2023-03-19T10:59:23;36.10;30.90
46488;DHT22;32202;48.780;9.204;2023-03-19T11:01:49;35.60;30.00
46488;DHT22;32202;48.780;9.204;2023-03-19T11:04:20;36.30;30.00
46488;DHT22;32202;48.780;9.204;2023-03-19T11:06:50;35.20;30.00
46488;DHT22;32202;48.780;9.204;2023-03-19T11:09:29;34.40;30.30
46488;DHT22;32202;48.780;9.204;2023-03-19T11:12:04;33.60;30.90
46488;DHT22;32202;48.780;9.204;2023-03-19T11:14:33;32.40;31.00
46488;DHT22;32202;48.780;9.204;2023-03-19T11:17:04;30.10;32.70
46488;DHT22;32202;48.780;9.204;2023-03-19T11:19:32;29.20;34.00
46488;DHT22;32202;48.780;9.204;2023-03-19T11:24:30;28.90;34.40
46488;DHT22;32202;48.780;9.204;2023-03-19T11:26:56;29.00;34.20
46488;DHT22;32202;48.780;9.204;2023-03-19T11:29:22;28.70;34.60
46488;DHT22;32202;48.780;9.204;2023-03-19T11:31:54;28.80;34.70
46488;DHT22;32202;48.780;9.204;2023-03-19T11:39:26;29.00;34.80
46488;DHT22;32202;48.780;9.204;2023-03-19T11:41:57;28.50;35.10
46488;DHT22;32202;48.780;9.204;2023-03-19T11:44:28;28.70;35.20
46488;DHT22;32202;48.780;9.204;2023-03-19T11:54:59;32.00;32.60
46488;DHT22;32202;48.780;9.204;2023-03-19T12:00:55;30.00;32.80
46488;DHT22;32202;48.780;9.204;2023-03-19T12:03:07;29.10;33.60
46488;DHT22;32202;48.780;9.204;2023-03-19T12:10:43;26.70;36.30
46488;DHT22;32202;48.780;9.204;2023-03-19T12:13:13;27.80;35.10
46488;DHT22;32202;48.780;9.204;2023-03-19T12:23:26;28.00;34.80
46488;DHT22;32202;48.780;9.204;2023-03-19T12:28:39;26.70;36.00
46488;DHT22;32202;48.780;9.204;2023-03-19T12:33:43;25.50;37.50
46488;DHT22;32202;48.780;9.204;2023-03-19T12:36:12;24.80;38.10
46488;DHT22;32202;48.780;9.204;2023-03-19T12:38:40;24.60;38.60
46488;DHT22;32202;48.780;9.204;2023-03-19T12:41:08;24.50;39.00
46488;DHT22;32202;48.780;9.204;2023-03-19T12:46:24;24.30;39.50
46488;DHT22;32202;48.780;9.204;2023-03-19T12:48:53;24.10;39.80
46488;DHT22;32202;48.780;9.204;2023-03-19T12:51:22;24.50;39.10
46488;DHT22;32202;48.780;9.204;2023-03-19T12:53:53;24.50;39.30
46488;DHT22;32202;48.780;9.204;2023-03-19T12:56:24;24.50;39.60
46488;DHT22;32202;48.780;9.204;2023-03-19T12:59:12;24.20;39.70
46488;DHT22;32202;48.780;9.204;2023-03-19T13:01:43;24.40;40.00
46488;DHT22;32202;48.780;9.204;2023-03-19T13:04:20;24.30;40.00
46488;DHT22;32202;48.780;9.204;2023-03-19T13:09:58;23.50;41.10
46488;DHT22;32202;48.780;9.204;2023-03-19T13:12:26;23.00;42.80
46488;DHT22;32202;48.780;9.204;2023-03-19T13:14:58;22.50;44.40
46488;DHT22;32202;48.780;9.204;2023-03-19T13:19:54;21.40;46.70
46488;DHT22;32202;48.780;9.204;2023-03-19T13:22:28;20.80;50.30
46488;DHT22;32202;48.780;9.204;2023-03-19T13:24:55;20.20;54.30
46488;DHT22;32202;48.780;9.204;2023-03-19T13:27:26;19.70;56.70
46488;DHT22;32202;48.780;9.204;2023-03-19T13:37:45;19.90;58.30
46488;DHT22;32202;48.780;9.204;2023-03-19T13:42:55;21.30;53.50
46488;DHT22;32202;48.780;9.204;2023-03-19T13:45:34;21.50;54.40
46488;DHT22;32202;48.780;9.204;2023-03-19T13:51:04;21.80;52.80
46488;DHT22;32202;48.780;9.204;2023-03-19T13:55:57;21.60;53.60
46488;DHT22;32202;48.780;9.204;2023-03-19T13:58:23;21.60;53.40
46488;DHT22;32202;48.780;9.204;2023-03-19T14:01:08;21.50;54.00
46488;DHT22;32202;48.780;9.204;2023-03-19T14:03:35;21.30;55.10
46488;DHT22;32202;48.780;9.204;2023-03-19T14:06:01;21.00;55.70
46488;DHT22;32202;48.780;9.204;2023-03-19T14:08:29;20.70;56.30
46488;DHT22;32202;48.780;9.204;2023-03-19T14:10:57;20.40;55.60
46488;DHT22;32202;48.780;9.204;2023-03-19T14:15:49;20.20;57.60
46488;DHT22;32202;48.780;9.204;2023-03-19T14:18:16;20.50;58.90
46488;DHT22;32202;48.780;9.204;2023-03-19T14:25:54;21.50;55.80
46488;DHT22;32202;48.780;9.204;2023-03-19T14:28:31;21.70;55.10
46488;DHT22;32202;48.780;9.204;2023-03-19T14:30:57;21.90;55.10
46488;DHT22;32202;48.780;9.204;2023-03-19T14:33:27;21.90;54.40
46488;DHT22;32202;48.780;9.204;2023-03-19T14:35:54;21.90;54.50
46488;DHT22;32202;48.780;9.204;2023-03-19T14:41:06;21.40;55.10
46488;DHT22;32202;48.780;9.204;2023-03-19T14:53:54;20.60;58.30
46488;DHT22;32202;48.780;9.204;2023-03-19T14:56:23;20.40;58.70
46488;DHT22;32202;48.780;9.204;2023-03-19T14:58:50;20.10;57.80
46488;DHT22;32202;48.780;9.204;2023-03-19T15:01:17;20.00;59.20
46488;DHT22;32202;48.780;9.204;2023-03-19T15:03:42;19.80;60.80
46488;DHT22;32202;48.780;9.204;2023-03-19T15:06:09;19.70;60.60
46488;DHT22;32202;48.780;9.204;2023-03-19T15:08:36;19.70;59.80
46488;DHT22;32202;48.780;9.204;2023-03-19T15:18:32;18.90;61.40
46488;DHT22;32202;48.780;9.204;2023-03-19T15:20:59;19.00;61.40
46488;DHT22;32202;48.780;9.204;2023-03-19T15:23:27;18.90;60.60
46488;DHT22;32202;48.780;9.204;2023-03-19T15:25:53;18.80;61.10
46488;DHT22;32202;48.780;9.204;2023-03-19T15:28:25;18.70;61.20
46488;DHT22;32202;48.780;9.204;2023-03-19T15:30:55;18.70;60.20
46488;DHT22;32202;48.780;9.204;2023-03-19T15:33:29;18.50;61.20
46488;DHT22;32202;48.780;9.204;2023-03-19T15:35:59;18.50;60.50
46488;DHT22;32202;48.780;9.204;2023-03-19T15:38:27;18.50;60.60
46488;DHT22;32202;48.780;9.204;2023-03-19T15:40:55;18.40;61.00
46488;DHT22;32202;48.780;9.204;2023-03-19T15:43:21;18.30;60.30
46488;DHT22;32202;48.780;9.204;2023-03-19T15:45:48;18.20;61.70
46488;DHT22;32202;48.780;9.204;2023-03-19T15:50:41;17.90;62.20
46488;DHT22;32202;48.780;9.204;2023-03-19T15:53:09;17.80;62.00
46488;DHT22;32202;48.780;9.204;2023-03-19T15:55:36;17.60;62.90
46488;DHT22;32202;48.780;9.204;2023-03-19T15:58:06;17.50;64.20
46488;DHT22;32202;48.780;9.204;2023-03-19T16:00:41;17.50;64.20
46488;DHT22;32202;48.780;9.204;2023-03-19T16:03:10;17.30;64.40
46488;DHT22;32202;48.780;9.204;2023-03-19T16:05:37;17.20;65.00
46488;DHT22;32202;48.780;9.204;2023-03-19T16:08:24;17.00;65.40
46488;DHT22;32202;48.780;9.204;2023-03-19T16:10:48;16.80;66.70
46488;DHT22;32202;48.780;9.204;2023-03-19T16:13:19;16.70;68.20
46488;DHT22;32202;48.780;9.204;2023-03-19T16:15:47;16.40;69.50
46488;DHT22;32202;48.780;9.204;2023-03-19T16:18:24;16.30;71.10
46488;DHT22;32202;48.780;9.204;2023-03-19T16:20:59;16.00;73.60
46488;DHT22;32202;48.780;9.204;2023-03-19T16:23:28;15.80;75.70
46488;DHT22;32202;48.780;9.204;2023-03-19T16:25:55;15.70;78.90
46488;DHT22;32202;48.780;9.204;2023-03-19T16:28:21;15.60;81.50
46488;DHT22;32202;48.780;9.204;2023-03-19T16:30:48;15.50;82.30
46488;DHT22;32202;48.780;9.204;2023-03-19T16:33:14;15.40;84.40
46488;DHT22;32202;48.780;9.204;2023-03-19T16:35:40;15.40;87.20
46488;DHT22;32202;48.780;9.204;2023-03-19T16:40:37;15.20;90.50
46488;DHT22;32202;48.780;9.204;2023-03-19T16:43:13;15.10;92.20
46488;DHT22;32202;48.780;9.204;2023-03-19T16:45:40;14.90;93.40
46488;DHT22;32202;48.780;9.204;2023-03-19T16:48:07;14.80;94.20
46488;DHT22;32202;48.780;9.204;2023-03-19T16:50:36;14.80;95.10
46488;DHT22;32202;48.780;9.204;2023-03-19T16:53:03;14.80;95.70
46488;DHT22;32202;48.780;9.204;2023-03-19T16:55:35;14.70;96.50
46488;DHT22;32202;48.780;9.204;2023-03-19T17:00:27;14.70;96.90
46488;DHT22;32202;48.780;9.204;2023-03-19T17:02:53;14.70;97.20
46488;DHT22;32202;48.780;9.204;2023-03-19T17:05:22;14.60;97.60
46488;DHT22;32202;48.780;9.204;2023-03-19T17:07:48;14.50;98.10
46488;DHT22;32202;48.780;9.204;2023-03-19T17:10:15;14.50;98.90
46488;DHT22;32202;48.780;9.204;2023-03-19T17:12:41;14.40;98.50
46488;DHT22;32202;48.780;9.204;2023-03-19T17:15:30;14.40;98.40
46488;DHT22;32202;48.780;9.204;2023-03-19T17:17:53;14.30;99.90
46488;DHT22;32202;48.780;9.204;2023-03-19T17:20:20;14.20;99.90
46488;DHT22;32202;48.780;9.204;2023-03-19T17:22:46;13.90;99.90
46488;DHT22;32202;48.780;9.204;2023-03-19T17:25:12;13.90;99.90
46488;DHT22;32202;48.780;9.204;2023-03-19T17:27:38;13.80;99.90